Forside
METAR-TAF:

METAR-TAF

Lufthavne :

Oelwein Municipal Airport

Oelwein, Iowa, USA

Breddekreds: 42-40-51N, længdekreds: 091-58-28W, højde: 328 m

Aktuelle vejr

Denne rapport blev lavet for 14 minutter siden, kl. 18:55 UTC
Vind 22 kt fra vestnordvest med vindstød på up til 27 kt
Temperatur -5°C
Fugtighed 100%
Tryk 1002 hPa
Sigt: 16.1 km
Spredte skyer i en højde af 1400 ft
Brudte skyer i en højde af 4800 ft
Brudte skyer i en højde af 7000 ft

METAR: KOLZ 091855Z AUTO 30022G27KT 10SM SCT014 BKN048 BKN070 M05/M05 A2959 RMK A01

Tid: 13:09 (19:09 UTC)


TAF: fraværende

Vejrobservationer og prognoser fra mere end 4000 lufthavne (METAR og TAF).

De gule og røde prikker repræsenterer de meteorologiske stationer.

Flyt musen over at se navnet på stationen.

Så klik over at se vejr observationer og prognoser.

At skifte det kort: Klik på de grønne knapper med et sort kors for at zoome ind; på den grønne knap med en bindestreg for at zoome ud; eller på de grønne pile for tilstødende kort.


METAR-TAF: